Thiensville, Wisconsin
Current Conditions -  °F | °C
As of 7:45 AM on Wednesday 28 Jan 2015 (Local Time) from KMWC Reporting Station
Clear Clear  
Wind Chill: 25°   Ceiling: Unl
Heat Index: 25°   Visibility: 10mi
Dew Point: 18°   Wind: 3mph
Humidity: 74%   Direction: 90°E
Pressure: 30.26"   Gusts: NA
Location:  43.24°N, 87.98°W
Report Text: KMWC 281345Z AUTO 09003KT 10SM SKC M04/M08 A3026
Loading
Personal Weather Stations






























Interactive Weather Map New forecast layout! Learn more

10-Day Weather Forecast

Advertisements
Track Severe Weather on mobile